Cambre, Spain
Current Conditions -  °F | °C
As of 1:00 AM on Wednesday 26 Nov 2014 (Local Time) from LECO Reporting Station
Moderate Fog Moderate Fog  
Wind Chill: 43°   Ceiling: Unl
Heat Index: 43°   Visibility: 0.25mi
Dew Point: 43°   Wind: 3mph
Humidity: 100%   Direction: 190°S
Pressure: 30.03"   Gusts: NA
Location:  43.29°N, 8.35°W
Report Text: LECO 260000Z 19003KT 0400 R21/0550D R03/1700D FG NSC 06/06 Q1017 NOSIG
Loading
Personal Weather Stations






























Interactive Weather Map New forecast layout! Learn more

10-Day Weather Forecast

Advertisements
Track Severe Weather on mobile